createdAt,value
2018-11-06T00:02:20.429Z,7.50
2018-11-06T00:04:53.789Z,7.50
2018-11-06T00:07:21.868Z,7.60
2018-11-06T00:09:49.958Z,7.60
2018-11-06T00:12:18.033Z,7.60
2018-11-06T00:14:46.129Z,7.60
2018-11-06T00:17:14.207Z,7.60
2018-11-06T00:19:42.357Z,7.70
2018-11-06T00:22:10.443Z,7.70
2018-11-06T00:24:38.525Z,7.80
2018-11-06T00:27:06.833Z,7.80
2018-11-06T00:29:34.916Z,7.90
2018-11-06T00:32:03.094Z,7.90
2018-11-06T00:34:31.157Z,7.80
2018-11-06T00:36:59.233Z,7.70
2018-11-06T00:39:27.321Z,7.60
2018-11-06T00:41:55.388Z,7.60
2018-11-06T00:44:23.472Z,7.70
2018-11-06T00:46:51.548Z,7.70
2018-11-06T00:49:19.628Z,7.80
2018-11-06T00:51:47.711Z,7.80
2018-11-06T00:54:15.796Z,7.90
2018-11-06T00:56:43.878Z,8.00
2018-11-06T00:59:12.367Z,8.00
2018-11-06T01:01:40.456Z,8.00
2018-11-06T01:04:10.156Z,8.10
2018-11-06T01:06:38.549Z,8.10
2018-11-06T01:09:09.257Z,8.20
2018-11-06T01:11:37.970Z,8.20
2018-11-06T01:14:06.285Z,8.20
2018-11-06T01:16:34.368Z,8.20
2018-11-06T01:19:02.451Z,8.20
2018-11-06T01:21:30.541Z,8.20
2018-11-06T01:23:58.619Z,8.20
2018-11-06T01:26:26.700Z,8.30
2018-11-06T01:28:54.812Z,8.20
2018-11-06T01:31:22.900Z,8.30
2018-11-06T01:33:50.982Z,8.30
2018-11-06T01:36:19.076Z,8.30
2018-11-06T01:38:47.169Z,8.30
2018-11-06T01:41:15.252Z,8.40
2018-11-06T01:43:43.338Z,8.40
2018-11-06T01:46:11.433Z,8.40
2018-11-06T01:48:39.497Z,8.40
2018-11-06T01:51:07.588Z,8.40
2018-11-06T01:53:35.660Z,8.40
2018-11-06T01:56:03.741Z,8.40
2018-11-06T01:58:31.829Z,8.30
2018-11-06T02:00:59.913Z,8.30
2018-11-06T02:03:27.993Z,8.30
2018-11-06T02:05:56.091Z,8.30
2018-11-06T02:08:24.171Z,8.30
2018-11-06T02:10:52.253Z,8.20
2018-11-06T02:13:20.320Z,8.20
2018-11-06T02:15:48.412Z,8.20
2018-11-06T02:18:16.497Z,8.10
2018-11-06T02:20:44.644Z,8.00
2018-11-06T02:23:12.725Z,8.00
2018-11-06T02:25:40.795Z,8.00
2018-11-06T02:28:08.870Z,7.90
2018-11-06T02:30:36.945Z,7.90
2018-11-06T02:33:05.120Z,7.80
2018-11-06T02:35:33.196Z,7.80
2018-11-06T02:38:01.281Z,7.70
2018-11-06T02:40:29.354Z,7.70
2018-11-06T02:42:57.705Z,7.70
2018-11-06T02:45:25.770Z,7.70
2018-11-06T02:47:53.849Z,7.80
2018-11-06T02:50:21.921Z,7.80
2018-11-06T02:52:50.028Z,7.80
2018-11-06T02:55:18.096Z,7.80
2018-11-06T02:57:46.185Z,7.80
2018-11-06T03:00:15.261Z,7.80
2018-11-06T03:02:43.869Z,7.80
2018-11-06T03:05:12.006Z,7.80
2018-11-06T03:07:40.440Z,7.80
2018-11-06T03:10:09.461Z,7.90
2018-11-06T03:12:37.845Z,7.90
2018-11-06T03:15:06.703Z,7.90
2018-11-06T03:17:34.777Z,7.90
2018-11-06T03:20:02.861Z,8.00
2018-11-06T03:22:30.936Z,8.00
2018-11-06T03:24:59.009Z,8.00
2018-11-06T03:27:27.092Z,8.00
2018-11-06T03:29:55.182Z,8.00
2018-11-06T03:32:23.277Z,8.00
2018-11-06T03:34:51.341Z,8.10
2018-11-06T03:37:19.423Z,8.10
2018-11-06T03:39:47.507Z,8.20
2018-11-06T03:42:15.587Z,8.20
2018-11-06T03:44:43.669Z,8.20
2018-11-06T03:47:11.754Z,8.20
2018-11-06T03:49:39.828Z,8.30
2018-11-06T03:52:08.005Z,8.30
2018-11-06T03:54:36.092Z,8.30
2018-11-06T03:57:04.174Z,8.30
2018-11-06T03:59:32.278Z,8.40
2018-11-06T04:02:00.350Z,8.40
2018-11-06T04:04:28.440Z,8.40
2018-11-06T04:06:56.529Z,8.50
2018-11-06T04:09:24.608Z,8.50
2018-11-06T04:11:52.680Z,8.60
2018-11-06T04:14:20.776Z,8.60
2018-11-06T04:16:48.844Z,8.60
2018-11-06T04:19:16.909Z,8.70
2018-11-06T04:21:44.989Z,8.70
2018-11-06T04:24:14.050Z,8.70
2018-11-06T04:26:42.140Z,8.70
2018-11-06T04:29:10.616Z,8.80
2018-11-06T04:31:39.314Z,8.80
2018-11-06T04:34:08.037Z,8.80
2018-11-06T04:36:36.101Z,8.90
2018-11-06T04:39:06.245Z,8.90
2018-11-06T04:41:34.309Z,9.00
2018-11-06T04:44:02.373Z,9.00
2018-11-06T04:46:30.446Z,9.00
2018-11-06T04:48:58.513Z,9.00
2018-11-06T04:51:26.598Z,9.00
2018-11-06T04:53:59.965Z,9.10
2018-11-06T04:56:28.876Z,9.10
2018-11-06T04:58:57.028Z,9.00
2018-11-06T05:01:25.352Z,9.10
2018-11-06T05:03:53.411Z,9.10
2018-11-06T05:06:21.475Z,9.10
2018-11-06T05:08:49.537Z,9.10
2018-11-06T05:11:17.610Z,9.10
2018-11-06T05:13:45.719Z,9.20
2018-11-06T05:16:13.749Z,9.20
2018-11-06T05:18:41.817Z,9.20
2018-11-06T05:21:09.894Z,9.20
2018-11-06T05:23:37.952Z,9.20
2018-11-06T05:26:06.043Z,9.20
2018-11-06T05:28:34.093Z,9.20
2018-11-06T05:31:02.157Z,9.20
2018-11-06T05:33:30.220Z,9.20
2018-11-06T05:35:58.286Z,9.10
2018-11-06T05:38:26.395Z,9.10
2018-11-06T05:41:05.781Z,9.00
2018-11-06T05:43:34.248Z,9.00
2018-11-06T05:46:02.549Z,9.00
2018-11-06T05:48:30.601Z,9.00
2018-11-06T05:50:58.680Z,9.00
2018-11-06T05:53:26.733Z,9.00
2018-11-06T05:55:54.796Z,9.00
2018-11-06T05:58:22.860Z,9.00
2018-11-06T06:00:50.932Z,9.00
2018-11-06T06:03:18.999Z,8.90
2018-11-06T06:05:47.065Z,8.90
2018-11-06T06:08:15.142Z,8.90
2018-11-06T06:10:43.257Z,8.90
2018-11-06T06:13:11.312Z,8.80
2018-11-06T06:15:39.378Z,8.70
2018-11-06T06:18:07.487Z,8.70
2018-11-06T06:20:35.521Z,8.70
2018-11-06T06:23:03.580Z,8.60
2018-11-06T06:25:31.645Z,8.70
2018-11-06T06:27:59.719Z,8.60
2018-11-06T06:30:27.773Z,8.70
2018-11-06T06:33:02.396Z,8.70
2018-11-06T06:35:30.452Z,8.70
2018-11-06T06:37:58.524Z,8.80
2018-11-06T06:40:26.654Z,8.80
2018-11-06T06:42:54.713Z,8.80
2018-11-06T06:45:22.777Z,8.90
2018-11-06T06:47:50.841Z,8.90
2018-11-06T06:50:19.617Z,8.90
2018-11-06T06:52:48.214Z,8.90
2018-11-06T06:55:16.869Z,9.00
2018-11-06T06:57:45.732Z,9.00
2018-11-06T07:00:16.242Z,9.10
2018-11-06T07:02:44.341Z,9.10
2018-11-06T07:05:13.754Z,9.20
2018-11-06T07:07:42.656Z,9.30
2018-11-06T07:10:12.582Z,9.40
2018-11-06T07:12:41.772Z,9.40
2018-11-06T07:15:12.549Z,9.50
2018-11-06T07:17:40.936Z,9.60
2018-11-06T07:20:11.577Z,9.60
2018-11-06T07:22:40.687Z,9.70
2018-11-06T07:25:10.002Z,9.80
2018-11-06T07:27:38.593Z,9.90
2018-11-06T07:30:09.723Z,9.90
2018-11-06T07:32:37.948Z,9.90
2018-11-06T07:35:06.696Z,10.00
2018-11-06T07:37:34.576Z,10.00
2018-11-06T07:40:03.025Z,10.10
2018-11-06T07:42:31.210Z,10.30
2018-11-06T07:44:59.309Z,10.30
2018-11-06T07:47:27.604Z,10.40
2018-11-06T07:49:55.794Z,10.40
2018-11-06T07:52:23.819Z,10.50
2018-11-06T07:54:51.896Z,10.60
2018-11-06T07:57:20.010Z,10.50
2018-11-06T07:59:48.221Z,10.50
2018-11-06T08:02:16.301Z,10.60
2018-11-06T08:04:44.681Z,10.70
2018-11-06T08:07:12.749Z,10.80
2018-11-06T08:09:40.841Z,10.90
2018-11-06T08:12:08.926Z,11.10
2018-11-06T08:14:37.096Z,11.20
2018-11-06T08:17:05.388Z,11.40
2018-11-06T08:19:33.491Z,11.60
2018-11-06T08:22:01.553Z,11.90
2018-11-06T08:24:29.608Z,12.10
2018-11-06T08:26:57.668Z,12.20
2018-11-06T08:29:25.845Z,12.50
2018-11-06T08:31:54.318Z,12.70
2018-11-06T08:34:21.984Z,13.00
2018-11-06T08:36:50.108Z,13.60
2018-11-06T08:39:18.140Z,14.20
2018-11-06T08:41:46.216Z,14.90
2018-11-06T08:44:14.292Z,15.50
2018-11-06T08:46:42.366Z,16.20
2018-11-06T08:49:10.445Z,17.00
2018-11-06T08:51:38.550Z,17.90
2018-11-06T08:54:06.623Z,18.80
2018-11-06T08:56:35.104Z,20.00
2018-11-06T08:59:03.181Z,20.90
2018-11-06T09:01:31.252Z,21.60
2018-11-06T09:03:59.325Z,21.90
2018-11-06T09:06:27.397Z,22.00
2018-11-06T09:08:55.507Z,22.00
2018-11-06T09:11:23.534Z,21.60
2018-11-06T09:13:51.602Z,21.10
2018-11-06T09:16:19.703Z,20.50
2018-11-06T09:18:47.787Z,19.90
2018-11-06T09:21:15.893Z,19.50
2018-11-06T09:23:43.977Z,18.90
2018-11-06T09:26:12.065Z,18.70
2018-11-06T09:28:40.145Z,18.50
2018-11-06T09:31:08.266Z,18.30
2018-11-06T09:33:36.321Z,18.10
2018-11-06T09:36:04.406Z,17.70
2018-11-06T09:38:32.497Z,17.40
2018-11-06T09:41:00.597Z,17.10
2018-11-06T09:43:28.664Z,16.90
2018-11-06T09:45:56.766Z,16.80
2018-11-06T09:48:24.869Z,16.70
2018-11-06T09:50:52.965Z,16.50
2018-11-06T09:53:21.142Z,16.50
2018-11-06T09:55:49.214Z,16.60
2018-11-06T09:58:17.289Z,16.80
2018-11-06T10:00:45.389Z,17.00
2018-11-06T10:03:13.475Z,17.10
2018-11-06T10:05:41.565Z,17.10
2018-11-06T10:08:09.651Z,17.20
2018-11-06T10:10:37.736Z,17.30
2018-11-06T10:13:05.841Z,17.50
2018-11-06T10:15:33.973Z,17.50
2018-11-06T10:18:02.025Z,17.60
2018-11-06T10:20:30.114Z,17.60
2018-11-06T10:22:58.196Z,17.60
2018-11-06T10:25:26.288Z,17.70
2018-11-06T10:27:54.373Z,17.50
2018-11-06T10:30:22.456Z,17.50
2018-11-06T10:32:50.537Z,17.60
2018-11-06T10:35:18.626Z,17.40
2018-11-06T10:37:46.723Z,17.50
2018-11-06T10:40:18.248Z,17.50
2018-11-06T10:42:46.716Z,17.60
2018-11-06T10:45:14.818Z,17.80
2018-11-06T10:47:42.903Z,18.60
2018-11-06T10:50:12.020Z,20.60
2018-11-06T10:52:40.412Z,22.90
2018-11-06T10:55:08.909Z,25.10
2018-11-06T10:57:38.229Z,26.80
2018-11-06T11:00:12.445Z,27.50
2018-11-06T11:02:45.912Z,27.50
2018-11-06T11:05:14.149Z,27.60
2018-11-06T11:07:42.237Z,27.10
2018-11-06T11:10:10.348Z,26.70
2018-11-06T11:12:38.591Z,26.00
2018-11-06T11:15:06.524Z,25.40
2018-11-06T11:17:34.612Z,24.80
2018-11-06T11:20:02.700Z,24.20
2018-11-06T11:22:30.790Z,23.70
2018-11-06T11:24:58.864Z,23.10
2018-11-06T11:27:26.954Z,22.80
2018-11-06T11:29:55.038Z,22.40
2018-11-06T11:32:23.133Z,22.10
2018-11-06T11:34:51.433Z,21.80
2018-11-06T11:37:19.525Z,21.70
2018-11-06T11:39:47.601Z,21.50
2018-11-06T11:42:15.684Z,21.90
2018-11-06T11:44:43.774Z,22.50
2018-11-06T11:47:11.857Z,23.20
2018-11-06T11:49:39.954Z,23.90
2018-11-06T11:52:08.029Z,24.10
2018-11-06T11:54:36.125Z,23.70
2018-11-06T11:57:04.528Z,23.50
2018-11-06T11:59:32.593Z,23.30
2018-11-06T12:02:00.695Z,23.00
2018-11-06T12:04:28.763Z,22.80
2018-11-06T12:06:56.857Z,22.60
2018-11-06T12:09:24.932Z,22.30
2018-11-06T12:11:53.020Z,22.00
2018-11-06T12:14:21.118Z,21.90
2018-11-06T12:16:49.181Z,21.60
2018-11-06T12:19:17.244Z,21.40
2018-11-06T12:21:45.306Z,21.10
2018-11-06T12:24:13.572Z,20.90
2018-11-06T12:26:41.972Z,20.60
2018-11-06T12:29:10.065Z,20.50
2018-11-06T12:31:38.200Z,20.20
2018-11-06T12:34:06.545Z,20.10
2018-11-06T12:36:34.794Z,20.00
2018-11-06T12:39:02.830Z,19.80
2018-11-06T12:41:30.884Z,19.80
2018-11-06T12:43:58.956Z,19.60
2018-11-06T12:46:27.045Z,19.40
2018-11-06T12:48:55.141Z,19.40
2018-11-06T12:51:23.325Z,19.40
2018-11-06T12:53:51.401Z,19.50
2018-11-06T12:56:19.523Z,19.50
2018-11-06T12:58:47.517Z,19.50
2018-11-06T13:01:15.588Z,19.40
2018-11-06T13:03:43.756Z,19.50
2018-11-06T13:06:11.824Z,19.50
2018-11-06T13:08:39.881Z,19.50
2018-11-06T13:11:07.949Z,19.60
2018-11-06T13:13:36.005Z,19.50
2018-11-06T13:16:04.445Z,19.50
2018-11-06T13:18:33.496Z,19.70
2018-11-06T13:21:01.788Z,19.90
2018-11-06T13:23:29.856Z,20.20
2018-11-06T13:25:58.174Z,20.30
2018-11-06T13:28:26.229Z,20.30
2018-11-06T13:30:54.302Z,20.40
2018-11-06T13:33:22.357Z,20.70
2018-11-06T13:35:50.424Z,21.00
2018-11-06T13:38:18.480Z,21.30
2018-11-06T13:40:46.557Z,21.60
2018-11-06T13:43:14.653Z,21.90
2018-11-06T13:45:42.936Z,22.30
2018-11-06T13:48:10.771Z,22.80
2018-11-06T13:50:38.839Z,22.80
2018-11-06T13:53:06.893Z,22.70
2018-11-06T13:55:34.965Z,22.80
2018-11-06T13:58:03.031Z,22.90
2018-11-06T14:00:31.099Z,22.90
2018-11-06T14:02:59.159Z,22.90
2018-11-06T14:05:27.221Z,22.60
2018-11-06T14:07:55.276Z,22.30
2018-11-06T14:10:23.348Z,21.80
2018-11-06T14:12:51.409Z,21.50
2018-11-06T14:15:19.500Z,21.20
2018-11-06T14:17:47.618Z,21.00
2018-11-06T14:20:16.442Z,20.80
2018-11-06T14:22:44.924Z,20.50
2018-11-06T14:25:13.025Z,20.30
2018-11-06T14:27:41.218Z,20.00
2018-11-06T14:30:12.265Z,19.80
2018-11-06T14:32:40.363Z,19.60
2018-11-06T14:35:09.653Z,19.40
2018-11-06T14:37:37.894Z,19.20
2018-11-06T14:40:07.101Z,19.10
2018-11-06T14:42:35.409Z,18.90
2018-11-06T14:45:03.446Z,18.80
2018-11-06T14:47:31.528Z,18.60
2018-11-06T14:49:59.648Z,18.50
2018-11-06T14:52:27.729Z,18.30
2018-11-06T14:54:55.871Z,18.10
2018-11-06T14:57:23.964Z,18.00
2018-11-06T14:59:52.096Z,17.80
2018-11-06T15:02:20.177Z,17.70
2018-11-06T15:04:48.637Z,17.60
2018-11-06T15:07:16.722Z,17.40
2018-11-06T15:09:44.800Z,17.30
2018-11-06T15:12:12.889Z,17.20
2018-11-06T15:14:40.965Z,17.00
2018-11-06T15:17:09.037Z,16.90
2018-11-06T15:19:37.132Z,16.80
2018-11-06T15:22:05.609Z,16.60
2018-11-06T15:24:33.905Z,16.50
2018-11-06T15:27:01.982Z,16.30
2018-11-06T15:29:30.044Z,16.20
2018-11-06T15:31:58.116Z,16.00
2018-11-06T15:34:26.172Z,15.90
2018-11-06T15:36:54.246Z,15.70
2018-11-06T15:39:22.314Z,15.60
2018-11-06T15:41:50.511Z,15.50
2018-11-06T15:44:18.446Z,15.40
2018-11-06T15:46:46.522Z,15.30
2018-11-06T15:49:14.732Z,15.20
2018-11-06T15:51:42.910Z,15.20
2018-11-06T15:54:11.008Z,15.00
2018-11-06T15:56:39.106Z,14.90
2018-11-06T15:59:07.164Z,14.80
2018-11-06T16:01:35.232Z,14.60
2018-11-06T16:04:03.298Z,14.60
2018-11-06T16:06:31.369Z,14.50
2018-11-06T16:08:59.439Z,14.40
2018-11-06T16:11:27.519Z,14.30
2018-11-06T16:13:55.576Z,14.20
2018-11-06T16:16:23.677Z,14.10
2018-11-06T16:18:51.765Z,14.10
2018-11-06T16:21:19.858Z,14.00
2018-11-06T16:23:47.945Z,14.00
2018-11-06T16:26:16.033Z,13.90
2018-11-06T16:28:44.121Z,13.80
2018-11-06T16:31:12.226Z,13.80
2018-11-06T16:33:40.309Z,13.70
2018-11-06T16:36:08.397Z,13.70
2018-11-06T16:38:36.513Z,13.60
2018-11-06T16:41:05.109Z,13.50
2018-11-06T16:43:33.197Z,13.50
2018-11-06T16:46:01.298Z,13.40
2018-11-06T16:48:29.440Z,13.20
2018-11-06T16:50:57.448Z,12.90
2018-11-06T16:53:25.535Z,12.70
2018-11-06T16:55:53.642Z,12.50
2018-11-06T16:58:21.733Z,12.40
2018-11-06T17:00:49.905Z,12.30
2018-11-06T17:03:17.914Z,12.10
2018-11-06T17:05:45.996Z,12.10
2018-11-06T17:08:14.089Z,12.00
2018-11-06T17:10:42.165Z,12.00
2018-11-06T17:13:10.252Z,12.10
2018-11-06T17:15:38.329Z,12.00
2018-11-06T17:18:06.449Z,12.00
2018-11-06T17:20:34.529Z,12.10
2018-11-06T17:23:02.589Z,12.10
2018-11-06T17:28:05.468Z,12.10
2018-11-06T17:30:33.537Z,12.10
2018-11-06T17:33:01.624Z,12.00
2018-11-06T17:35:29.689Z,11.90
2018-11-06T17:37:57.764Z,11.90
2018-11-06T17:40:25.832Z,11.70
2018-11-06T17:42:53.909Z,11.50
2018-11-06T17:45:23.411Z,11.30
2018-11-06T17:47:51.468Z,11.20
2018-11-06T17:50:19.555Z,11.10
2018-11-06T17:52:47.684Z,11.10
2018-11-06T17:55:17.233Z,11.00
2018-11-06T17:57:45.310Z,10.80
2018-11-06T18:00:17.201Z,10.70
2018-11-06T18:02:45.432Z,10.70
2018-11-06T18:05:14.385Z,10.60
2018-11-06T18:07:42.967Z,10.60
2018-11-06T18:10:13.421Z,10.50
2018-11-06T18:12:41.494Z,10.50
2018-11-06T18:15:09.581Z,10.40
2018-11-06T18:17:38.400Z,10.40
2018-11-06T18:20:07.253Z,10.40
2018-11-06T18:22:35.315Z,10.40
2018-11-06T18:25:03.434Z,10.40
2018-11-06T18:27:31.466Z,10.30
2018-11-06T18:29:59.561Z,10.30
2018-11-06T18:32:27.634Z,10.30
2018-11-06T18:34:55.697Z,10.30
2018-11-06T18:37:23.765Z,10.30
2018-11-06T18:39:51.840Z,10.30
2018-11-06T18:42:19.934Z,10.30
2018-11-06T18:44:47.989Z,10.20
2018-11-06T18:47:16.088Z,10.20
2018-11-06T18:49:44.176Z,10.20
2018-11-06T18:52:12.209Z,10.10
2018-11-06T18:54:40.316Z,10.10
2018-11-06T18:57:08.401Z,10.10
2018-11-06T18:59:36.477Z,10.10
2018-11-06T19:02:04.884Z,10.10
2018-11-06T19:04:32.984Z,10.10
2018-11-06T19:07:01.064Z,10.10
2018-11-06T19:09:29.173Z,10.10
2018-11-06T19:11:57.245Z,10.10
2018-11-06T19:14:25.345Z,10.00
2018-11-06T19:16:53.499Z,10.00
2018-11-06T19:19:21.613Z,10.10
2018-11-06T19:21:49.659Z,10.10
2018-11-06T19:24:17.733Z,10.10
2018-11-06T19:26:45.795Z,10.00
2018-11-06T19:29:13.879Z,10.00
2018-11-06T19:31:41.944Z,9.90
2018-11-06T19:34:10.026Z,10.00
2018-11-06T19:36:38.095Z,10.00
2018-11-06T19:39:09.049Z,10.00
2018-11-06T19:41:37.270Z,10.00
2018-11-06T19:44:05.429Z,10.00
2018-11-06T19:46:33.473Z,10.00
2018-11-06T19:49:01.546Z,10.00
2018-11-06T19:51:29.610Z,10.10
2018-11-06T19:53:57.725Z,10.10
2018-11-06T19:56:25.855Z,10.20
2018-11-06T19:58:53.829Z,10.20
2018-11-06T20:01:21.912Z,10.20
2018-11-06T20:03:49.980Z,10.10
2018-11-06T20:06:18.052Z,10.10
2018-11-06T20:08:46.116Z,10.10
2018-11-06T20:11:14.197Z,10.10
2018-11-06T20:13:42.252Z,10.10
2018-11-06T20:16:10.370Z,10.10
2018-11-06T20:18:38.457Z,10.10
2018-11-06T20:21:07.505Z,10.20
2018-11-06T20:23:35.788Z,10.10
2018-11-06T20:26:03.822Z,10.20
2018-11-06T20:28:31.914Z,10.20
2018-11-06T20:31:00.001Z,10.20
2018-11-06T20:33:28.221Z,10.20
2018-11-06T20:35:56.220Z,10.20
2018-11-06T20:38:24.310Z,10.20
2018-11-06T20:40:52.402Z,10.30
2018-11-06T20:43:20.584Z,10.30
2018-11-06T20:45:48.593Z,10.30
2018-11-06T20:48:16.668Z,10.30
2018-11-06T20:50:44.763Z,10.30
2018-11-06T20:53:12.854Z,10.30
2018-11-06T20:55:40.997Z,10.30
2018-11-06T20:58:09.017Z,10.40
2018-11-06T21:00:37.112Z,10.40
2018-11-06T21:03:05.193Z,10.40
2018-11-06T21:05:33.291Z,10.40
2018-11-06T21:08:01.374Z,10.30
2018-11-06T21:10:30.676Z,10.30
2018-11-06T21:12:58.812Z,10.30
2018-11-06T21:15:26.834Z,10.30
2018-11-06T21:17:55.006Z,10.30
2018-11-06T21:20:23.043Z,10.30
2018-11-06T21:22:51.062Z,10.40
2018-11-06T21:25:19.239Z,10.30
2018-11-06T21:27:47.204Z,10.30
2018-11-06T21:30:16.685Z,10.30
2018-11-06T21:32:46.093Z,10.40
2018-11-06T21:35:14.286Z,10.40
2018-11-06T21:37:42.472Z,10.40
2018-11-06T21:40:13.006Z,10.30
2018-11-06T21:42:41.818Z,10.20
2018-11-06T21:45:10.820Z,10.20
2018-11-06T21:47:39.113Z,10.20
2018-11-06T21:50:08.530Z,10.20
2018-11-06T21:52:36.601Z,10.20
2018-11-06T21:55:06.169Z,10.20
2018-11-06T21:57:34.382Z,10.30
2018-11-06T22:00:02.506Z,10.30
2018-11-06T22:02:30.522Z,10.30
2018-11-06T22:04:58.580Z,10.30
2018-11-06T22:07:26.664Z,10.30
2018-11-06T22:09:54.725Z,10.20
2018-11-06T22:12:23.083Z,10.20
2018-11-06T22:14:51.277Z,10.30
2018-11-06T22:17:19.374Z,10.30
2018-11-06T22:19:47.513Z,10.30
2018-11-06T22:22:15.599Z,10.30
2018-11-06T22:24:43.724Z,10.30
2018-11-06T22:27:11.801Z,10.30
2018-11-06T22:29:39.873Z,10.30
2018-11-06T22:32:07.990Z,10.20
2018-11-06T22:34:36.017Z,10.20
2018-11-06T22:39:38.784Z,10.20
2018-11-06T22:42:06.960Z,10.10
2018-11-06T22:44:35.032Z,10.00
2018-11-06T22:47:03.096Z,9.80
2018-11-06T22:49:31.301Z,9.80
2018-11-06T22:51:59.365Z,9.70
2018-11-06T22:54:27.443Z,9.70
2018-11-06T22:56:55.497Z,9.70
2018-11-06T22:59:23.556Z,9.70
2018-11-06T23:01:51.620Z,9.70
2018-11-06T23:04:19.740Z,9.70
2018-11-06T23:06:47.997Z,9.70
2018-11-06T23:09:15.945Z,9.70
2018-11-06T23:11:44.024Z,9.70
2018-11-06T23:14:12.177Z,9.70
2018-11-06T23:16:40.276Z,9.70
2018-11-06T23:19:08.356Z,9.60
2018-11-06T23:21:36.620Z,9.50
2018-11-06T23:24:04.697Z,9.50
2018-11-06T23:26:32.790Z,9.50
2018-11-06T23:29:00.861Z,9.50
2018-11-06T23:31:28.978Z,9.40
2018-11-06T23:33:57.036Z,9.40
2018-11-06T23:36:25.105Z,9.40
2018-11-06T23:38:53.198Z,9.40
2018-11-06T23:41:21.344Z,9.30
2018-11-06T23:43:49.441Z,9.30
2018-11-06T23:46:17.521Z,9.20
2018-11-06T23:48:45.609Z,9.20
2018-11-06T23:51:13.692Z,9.10
2018-11-06T23:53:41.778Z,9.10
2018-11-06T23:56:09.858Z,9.10
2018-11-06T23:58:37.940Z,9.10
